Time;durP1;ratioP1;P1;durP2;ratioP2;P2;SDS_P1;SDS_P2;PMS_P1;PMS_P2;Temp;Humidity;BMP_temperature;BMP_pressure;BME280_temperature;BME280_humidity;BME280_pressure;Samples;Min_cycle;Max_cycle;Signal;HPM_P1;HPM_P2
2023/03/27 00:00:56;;;;;;;52.80;23.67;;;;;;;;;;9778848;30;20036;-85
2023/03/27 00:06:00;;;;;;;54.67;24.00;;;;;;;;;;9788651;30;20035;-84
2023/03/27 00:11:02;;;;;;;53.17;23.07;;;;;;;;;;9794908;30;20043;-83
2023/03/27 00:16:04;;;;;;;57.83;25.77;;;;;;;;;;9788433;30;20051;-84
2023/03/27 00:21:05;;;;;;;63.27;26.77;;;;;;;;;;9786415;30;20049;-83
2023/03/27 00:26:06;;;;;;;54.33;25.97;;;;;;;;;;9790485;30;20033;-83
2023/03/27 00:31:11;;;;;;;56.43;26.83;;;;;;;;;;9785218;30;20646;-84
2023/03/27 00:36:14;;;;;;;52.90;25.47;;;;;;;;;;9786468;30;20039;-84
2023/03/27 00:41:17;;;;;;;65.00;29.70;;;;;;;;;;9788260;30;20371;-87
2023/03/27 00:46:39;;;;;;;65.17;27.00;;;;;;;;;;9787507;30;20047;-84
2023/03/27 00:51:46;;;;;;;56.37;25.53;;;;;;;;;;9786965;30;20040;-86
2023/03/27 00:56:52;;;;;;;67.27;27.90;;;;;;;;;;9793906;30;20114;-86
2023/03/27 01:01:55;;;;;;;55.10;26.40;;;;;;;;;;9784118;30;20040;-84
2023/03/27 01:06:57;;;;;;;60.57;27.63;;;;;;;;;;9787324;30;20033;-83
2023/03/27 01:12:06;;;;;;;57.07;26.97;;;;;;;;;;9786040;30;20069;-84
2023/03/27 01:17:15;;;;;;;59.67;28.43;;;;;;;;;;9784287;30;20296;-86
2023/03/27 01:22:31;;;;;;;65.33;27.70;;;;;;;;;;9786631;30;20059;-87
2023/03/27 01:27:57;;;;;;;57.28;26.15;;;;;;;;;;9791718;30;20036;-84
2023/03/27 01:33:01;;;;;;;69.70;32.97;;;;;;;;;;9755717;30;20512;-84
2023/03/27 01:38:11;;;;;;;62.13;29.63;;;;;;;;;;9785647;30;20126;-87
2023/03/27 01:43:15;;;;;;;69.93;29.57;;;;;;;;;;9784756;30;20033;-87
2023/03/27 01:48:34;;;;;;;74.67;33.83;;;;;;;;;;9783484;30;20114;-84
2023/03/27 01:53:37;;;;;;;65.87;28.80;;;;;;;;;;9783343;30;20041;-84
2023/03/27 01:58:45;;;;;;;66.67;28.70;;;;;;;;;;9783569;30;20033;-84
2023/03/27 02:03:48;;;;;;;61.33;28.13;;;;;;;;;;9783544;30;20041;-84
2023/03/27 02:09:00;;;;;;;57.80;25.50;;;;;;;;;;9785922;30;20068;-85
2023/03/27 02:14:12;;;;;;;72.93;29.97;;;;;;;;;;9775986;30;20544;-84
2023/03/27 02:19:18;;;;;;;59.37;26.07;;;;;;;;;;9787171;30;20064;-84
2023/03/27 02:24:21;;;;;;;;;;;;;;;;;;9783888;30;20028;-87
2023/03/27 02:29:33;;;;;;;69.83;30.27;;;;;;;;;;9793226;30;20142;-84
2023/03/27 02:35:09;;;;;;;58.43;24.60;;;;;;;;;;9782699;30;20056;-86
2023/03/27 02:40:22;;;;;;;51.38;23.70;;;;;;;;;;9723967;30;20037;-86
2023/03/27 02:45:50;;;;;;;65.07;26.37;;;;;;;;;;9791082;30;20048;-83
2023/03/27 02:51:03;;;;;;;44.60;21.20;;;;;;;;;;9757225;30;20052;-85
2023/03/27 02:56:08;;;;;;;45.83;20.27;;;;;;;;;;9784212;30;20021;-84
2023/03/27 03:01:12;;;;;;;42.58;20.10;;;;;;;;;;9790912;30;20025;-87
2023/03/27 03:06:13;;;;;;;36.40;17.03;;;;;;;;;;9791921;30;20063;-84
2023/03/27 03:11:19;;;;;;;35.73;17.90;;;;;;;;;;9791485;30;20079;-84
2023/03/27 03:16:21;;;;;;;29.33;13.97;;;;;;;;;;9793330;30;20052;-85
2023/03/27 03:21:23;;;;;;;27.17;12.77;;;;;;;;;;9798310;30;20052;-85
2023/03/27 03:26:25;;;;;;;23.83;12.60;;;;;;;;;;9795464;30;20036;-84
2023/03/27 03:31:26;;;;;;;23.00;10.80;;;;;;;;;;9796472;30;20167;-83
2023/03/27 03:36:29;;;;;;;26.13;11.60;;;;;;;;;;9790148;30;20045;-83
2023/03/27 03:41:30;;;;;;;20.57;9.77;;;;;;;;;;9789597;30;20057;-85
2023/03/27 03:46:34;;;;;;;22.73;11.57;;;;;;;;;;9790777;30;20048;-86
2023/03/27 03:51:35;;;;;;;18.00;9.43;;;;;;;;;;9790485;30;20055;-83
2023/03/27 03:56:42;;;;;;;25.37;12.47;;;;;;;;;;9789350;30;20518;-85
2023/03/27 04:01:43;;;;;;;26.37;11.97;;;;;;;;;;9780774;30;20037;-84
2023/03/27 04:06:44;;;;;;;27.37;12.90;;;;;;;;;;9789121;30;20215;-86
2023/03/27 04:11:45;;;;;;;24.37;12.93;;;;;;;;;;9789899;30;20037;-85
2023/03/27 04:16:46;;;;;;;27.33;13.30;;;;;;;;;;9790687;30;20041;-87
2023/03/27 04:21:47;;;;;;;29.63;15.37;;;;;;;;;;9787178;30;20071;-84
2023/03/27 04:26:48;;;;;;;29.43;14.53;;;;;;;;;;9799026;30;20549;-84
2023/03/27 04:31:50;;;;;;;32.60;14.83;;;;;;;;;;9784859;30;20477;-84
2023/03/27 04:36:51;;;;;;;32.90;13.83;;;;;;;;;;9788242;30;20493;-83
2023/03/27 04:41:52;;;;;;;33.43;14.80;;;;;;;;;;9775011;30;20047;-84
2023/03/27 04:46:53;;;;;;;25.60;13.43;;;;;;;;;;9799034;30;20059;-84
2023/03/27 04:51:54;;;;;;;27.97;12.90;;;;;;;;;;9788211;30;20258;-84
2023/03/27 04:56:55;;;;;;;23.53;12.50;;;;;;;;;;9786164;30;20040;-84
2023/03/27 05:01:57;;;;;;;27.93;14.00;;;;;;;;;;9786164;30;20540;-84
2023/03/27 05:06:59;;;;;;;29.30;14.30;;;;;;;;;;9787526;30;20437;-84
2023/03/27 05:12:00;;;;;;;31.70;15.03;;;;;;;;;;9785635;30;20064;-83
2023/03/27 05:17:01;;;;;;;30.30;15.40;;;;;;;;;;9786960;30;20035;-83
2023/03/27 05:22:02;;;;;;;36.90;17.87;;;;;;;;;;9786455;30;20402;-84
2023/03/27 05:27:04;;;;;;;36.93;18.83;;;;;;;;;;9785519;30;20541;-84
2023/03/27 05:32:05;;;;;;;36.57;18.13;;;;;;;;;;9784872;30;20055;-84
2023/03/27 05:37:05;;;;;;;39.27;20.73;;;;;;;;;;9786151;30;20028;-84
2023/03/27 05:42:07;;;;;;;43.67;21.77;;;;;;;;;;9784877;30;20044;-85
2023/03/27 05:47:10;;;;;;;40.40;21.90;;;;;;;;;;9786057;30;20158;-83
2023/03/27 05:52:11;;;;;;;41.03;22.40;;;;;;;;;;9784645;30;20044;-84
2023/03/27 05:57:12;;;;;;;39.60;20.10;;;;;;;;;;9785574;30;20044;-86
2023/03/27 06:02:17;;;;;;;45.33;24.00;;;;;;;;;;9784444;30;20044;-85
2023/03/27 06:07:18;;;;;;;42.60;23.37;;;;;;;;;;9784437;30;20107;-86
2023/03/27 06:12:19;;;;;;;45.60;24.27;;;;;;;;;;9784127;30;20110;-84
2023/03/27 06:17:20;;;;;;;48.17;23.87;;;;;;;;;;9784463;30;20029;-84
2023/03/27 06:22:21;;;;;;;45.97;24.40;;;;;;;;;;9784014;30;20063;-84
2023/03/27 06:27:22;;;;;;;52.13;26.93;;;;;;;;;;9784128;30;20684;-84
2023/03/27 06:32:29;;;;;;;52.17;27.07;;;;;;;;;;9787131;30;20085;-83
2023/03/27 06:37:35;;;;;;;62.97;26.37;;;;;;;;;;9790603;30;20448;-84
2023/03/27 06:42:37;;;;;;;56.92;27.83;;;;;;;;;;9790569;30;20131;-86
2023/03/27 06:47:38;;;;;;;53.90;25.53;;;;;;;;;;9791623;30;20474;-84
2023/03/27 06:52:39;;;;;;;49.67;25.50;;;;;;;;;;9792051;30;20481;-85
2023/03/27 06:57:44;;;;;;;62.83;28.10;;;;;;;;;;9791476;30;20032;-85
2023/03/27 07:02:46;;;;;;;61.63;28.20;;;;;;;;;;9790067;30;20044;-85
2023/03/27 07:07:47;;;;;;;60.27;30.03;;;;;;;;;;9791100;30;20254;-84
2023/03/27 07:12:49;;;;;;;60.47;29.73;;;;;;;;;;9789658;30;20173;-84
2023/03/27 07:17:57;;;;;;;62.20;30.53;;;;;;;;;;9789413;30;20450;-86
2023/03/27 07:22:59;;;;;;;59.63;27.43;;;;;;;;;;9790057;30;20061;-85
2023/03/27 07:28:00;;;;;;;72.77;32.77;;;;;;;;;;9788857;30;20065;-84
2023/03/27 07:33:06;;;;;;;65.37;30.47;;;;;;;;;;9789858;30;20088;-85
2023/03/27 07:38:09;;;;;;;68.72;30.95;;;;;;;;;;9797540;30;20035;-87
2023/03/27 07:43:10;;;;;;;67.33;31.53;;;;;;;;;;9796839;30;20255;-85
2023/03/27 07:48:15;;;;;;;73.07;33.40;;;;;;;;;;9795306;30;20049;-89
2023/03/27 07:53:20;;;;;;;72.53;36.60;;;;;;;;;;9789138;30;20045;-88
2023/03/27 07:58:21;;;;;;;68.37;33.83;;;;;;;;;;9791321;30;20486;-86
2023/03/27 08:03:24;;;;;;;62.60;30.73;;;;;;;;;;9786781;30;20044;-92
2023/03/27 08:08:27;;;;;;;64.43;31.77;;;;;;;;;;9782755;30;20875;-89
2023/03/27 08:13:29;;;;;;;65.50;30.23;;;;;;;;;;9779649;30;20122;-90
2023/03/27 08:18:30;;;;;;;67.47;33.70;;;;;;;;;;9795071;30;20040;-90
2023/03/27 08:23:32;;;;;;;74.00;32.33;;;;;;;;;;9796377;30;20063;-92
2023/03/27 08:28:34;;;;;;;77.30;35.50;;;;;;;;;;9803461;30;20140;-89
2023/03/27 08:33:35;;;;;;;73.20;34.33;;;;;;;;;;9786842;30;20153;-89
2023/03/27 08:38:38;;;;;;;76.00;34.67;;;;;;;;;;9796058;30;20044;-89
2023/03/27 08:43:40;;;;;;;59.13;27.30;;;;;;;;;;9786449;30;20036;-89
2023/03/27 08:48:43;;;;;;;61.37;28.20;;;;;;;;;;9800780;30;20043;-88
2023/03/27 08:53:54;;;;;;;46.57;23.40;;;;;;;;;;9787164;30;20047;-91
2023/03/27 08:58:55;;;;;;;51.90;24.67;;;;;;;;;;9783662;30;20110;-89
2023/03/27 09:04:03;;;;;;;39.90;19.73;;;;;;;;;;9800901;30;20071;-89
2023/03/27 09:09:23;;;;;;;37.33;17.67;;;;;;;;;;9785612;30;20043;-88
2023/03/27 09:14:39;;;;;;;23.90;9.77;;;;;;;;;;9786323;30;20793;-89
2023/03/27 09:19:52;;;;;;;30.37;14.03;;;;;;;;;;9785505;30;20548;-91
2023/03/27 09:24:57;;;;;;;30.97;13.87;;;;;;;;;;9788220;30;20060;-89
2023/03/27 09:30:06;;;;;;;30.03;14.20;;;;;;;;;;9789673;30;20047;-91
2023/03/27 09:35:14;;;;;;;49.57;17.10;;;;;;;;;;9794609;30;20032;-90
2023/03/27 09:40:28;;;;;;;29.80;14.10;;;;;;;;;;9792102;30;20041;-91
2023/03/27 09:45:31;;;;;;;22.40;11.40;;;;;;;;;;9788339;30;20099;-91
2023/03/27 09:50:43;;;;;;;20.90;9.67;;;;;;;;;;9784291;30;20864;-88
2023/03/27 09:55:51;;;;;;;19.53;10.27;;;;;;;;;;9774373;30;20033;-84
2023/03/27 10:01:06;;;;;;;24.57;9.37;;;;;;;;;;9788323;30;20123;-91
2023/03/27 10:06:13;;;;;;;32.00;15.27;;;;;;;;;;9787775;30;20478;-92
2023/03/27 10:11:22;;;;;;;34.80;17.10;;;;;;;;;;9802013;30;20048;-92
2023/03/27 10:16:28;;;;;;;34.20;15.90;;;;;;;;;;9813563;30;20039;-90
2023/03/27 10:21:41;;;;;;;28.20;13.30;;;;;;;;;;9781091;30;20172;-92
2023/03/27 10:26:43;;;;;;;26.43;14.13;;;;;;;;;;9799274;30;20143;-91
2023/03/27 10:31:51;;;;;;;21.60;11.33;;;;;;;;;;9791288;30;20779;-91
2023/03/27 10:36:54;;;;;;;21.20;11.20;;;;;;;;;;9794106;30;20824;-91
2023/03/27 10:41:56;;;;;;;17.97;10.37;;;;;;;;;;9799899;30;20127;-89
2023/03/27 10:46:57;;;;;;;27.23;13.77;;;;;;;;;;9810967;30;20741;-90
2023/03/27 10:52:15;;;;;;;18.80;11.27;;;;;;;;;;9791356;30;20045;-90
2023/03/27 10:57:20;;;;;;;13.00;8.77;;;;;;;;;;9815393;30;20063;-90
2023/03/27 11:02:41;;;;;;;14.93;8.80;;;;;;;;;;9802536;30;20041;-89
2023/03/27 11:07:48;;;;;;;18.67;9.83;;;;;;;;;;9788002;30;20044;-91
2023/03/27 11:12:58;;;;;;;10.90;7.43;;;;;;;;;;9790672;30;20044;-90
2023/03/27 11:18:22;;;;;;;12.67;7.63;;;;;;;;;;9789590;30;20036;-88
2023/03/27 11:23:30;;;;;;;15.53;7.97;;;;;;;;;;9784289;30;20087;-87
2023/03/27 11:28:51;;;;;;;15.87;9.20;;;;;;;;;;9789807;30;20037;-88
2023/03/27 11:33:55;;;;;;;13.13;8.50;;;;;;;;;;9794678;30;20131;-88
2023/03/27 11:39:05;;;;;;;13.90;8.20;;;;;;;;;;9788208;30;20509;-86
2023/03/27 11:44:08;;;;;;;13.07;9.20;;;;;;;;;;9786753;30;20033;-89
2023/03/27 11:49:16;;;;;;;16.07;9.53;;;;;;;;;;9781560;30;20036;-86
2023/03/27 11:54:18;;;;;;;15.07;8.90;;;;;;;;;;9788734;30;20549;-88
2023/03/27 11:59:29;;;;;;;14.73;8.97;;;;;;;;;;9789737;30;20079;-89
2023/03/27 12:04:33;;;;;;;12.37;8.87;;;;;;;;;;9789368;30;20041;-89
2023/03/27 12:09:43;;;;;;;12.27;8.07;;;;;;;;;;9770585;30;20119;-88
2023/03/27 12:15:01;;;;;;;14.17;8.07;;;;;;;;;;9791641;30;20182;-88
2023/03/27 12:20:04;;;;;;;13.00;7.67;;;;;;;;;;9783480;30;20402;-88
2023/03/27 12:25:22;;;;;;;10.73;6.97;;;;;;;;;;9785480;30;20036;-86
2023/03/27 12:30:23;;;;;;;9.47;6.43;;;;;;;;;;9791202;30;20843;-89
2023/03/27 12:35:26;;;;;;;8.30;5.63;;;;;;;;;;9775551;30;20483;-85
2023/03/27 12:40:27;;;;;;;11.60;6.90;;;;;;;;;;9766513;30;20048;-88
2023/03/27 12:45:29;;;;;;;12.33;6.77;;;;;;;;;;9789623;30;20041;-88
2023/03/27 12:50:33;;;;;;;11.70;7.00;;;;;;;;;;9786435;30;20160;-89
2023/03/27 12:55:37;;;;;;;8.90;6.20;;;;;;;;;;9789334;30;20508;-89
2023/03/27 13:00:39;;;;;;;9.30;5.50;;;;;;;;;;9783243;30;20043;-89
2023/03/27 13:05:59;;;;;;;9.07;5.87;;;;;;;;;;9785278;30;20036;-89
2023/03/27 13:11:09;;;;;;;9.40;5.50;;;;;;;;;;9785525;30;20036;-89
2023/03/27 13:16:26;;;;;;;9.10;5.17;;;;;;;;;;9792093;30;20028;-88
2023/03/27 13:21:32;;;;;;;6.87;4.20;;;;;;;;;;9793134;30;20602;-88
2023/03/27 13:26:34;;;;;;;5.65;3.58;;;;;;;;;;9782793;30;20132;-89
2023/03/27 13:31:45;;;;;;;4.83;3.37;;;;;;;;;;9776556;30;20037;-87
2023/03/27 13:36:49;;;;;;;9.47;3.87;;;;;;;;;;9782392;30;20031;-90
2023/03/27 13:42:08;;;;;;;4.13;3.13;;;;;;;;;;9798783;30;20531;-91
2023/03/27 13:47:21;;;;;;;7.03;3.80;;;;;;;;;;9795483;30;20036;-90
2023/03/27 13:52:28;;;;;;;7.03;4.83;;;;;;;;;;9773917;30;20041;-88
2023/03/27 13:57:48;;;;;;;6.90;3.90;;;;;;;;;;9788540;30;20040;-88
2023/03/27 14:02:58;;;;;;;8.10;3.57;;;;;;;;;;9794044;30;20074;-91
2023/03/27 14:08:00;;;;;;;9.00;3.93;;;;;;;;;;9784535;30;20044;-88
2023/03/27 14:13:30;;;;;;;6.50;3.77;;;;;;;;;;9783219;30;20049;-90
2023/03/27 14:18:34;;;;;;;6.80;3.90;;;;;;;;;;9736055;30;20107;-90
2023/03/27 14:23:40;;;;;;;6.20;3.77;;;;;;;;;;9788930;30;20486;-88
2023/03/27 14:28:42;;;;;;;;;;;;;;;;;;9785979;30;20398;-89
2023/03/27 14:33:56;;;;;;;6.97;2.97;;;;;;;;;;9799484;30;19922;-90
2023/03/27 14:39:17;;;;;;;7.07;3.60;;;;;;;;;;9787479;30;20024;-89
2023/03/27 14:44:19;;;;;;;4.27;3.13;;;;;;;;;;9790233;30;20040;-89
2023/03/27 14:49:23;;;;;;;4.00;2.73;;;;;;;;;;9782651;30;20040;-88
2023/03/27 14:54:28;;;;;;;7.47;3.50;;;;;;;;;;9787537;30;20040;-91
2023/03/27 14:59:29;;;;;;;7.33;2.97;;;;;;;;;;9794293;30;20032;-89
2023/03/27 15:04:32;;;;;;;5.70;2.87;;;;;;;;;;9789993;30;20040;-92
2023/03/27 15:09:33;;;;;;;10.13;3.30;;;;;;;;;;9791227;30;20028;-88
2023/03/27 15:14:34;;;;;;;7.20;3.57;;;;;;;;;;9802690;30;20047;-87
2023/03/27 15:19:44;;;;;;;7.50;4.03;;;;;;;;;;9792715;30;20126;-89
2023/03/27 15:25:03;;;;;;;7.53;3.40;;;;;;;;;;9788403;30;20098;-89
2023/03/27 15:30:08;;;;;;;3.93;2.10;;;;;;;;;;9788663;30;20044;-91
2023/03/27 15:35:15;;;;;;;3.47;2.27;;;;;;;;;;9790899;30;20032;-88
2023/03/27 15:46:01;;;;;;;4.03;2.13;;;;;;;;;;9676576;30;20040;-89
2023/03/27 15:51:03;;;;;;;4.80;2.33;;;;;;;;;;9756004;30;20075;-90
2023/03/27 15:56:13;;;;;;;5.03;2.33;;;;;;;;;;9788509;30;20119;-90
2023/03/27 16:01:34;;;;;;;5.83;2.40;;;;;;;;;;9791618;30;20120;-90
2023/03/27 16:06:38;;;;;;;3.87;2.97;;;;;;;;;;9787959;30;20190;-89
2023/03/27 16:11:44;;;;;;;4.77;2.40;;;;;;;;;;9803503;30;20359;-89
2023/03/27 16:16:45;;;;;;;3.80;2.47;;;;;;;;;;9792335;30;20036;-87
2023/03/27 16:21:53;;;;;;;3.03;1.87;;;;;;;;;;9788546;30;20059;-87
2023/03/27 16:26:55;;;;;;;4.87;2.60;;;;;;;;;;9788373;30;20028;-88
2023/03/27 16:31:56;;;;;;;3.30;1.70;;;;;;;;;;9786316;30;20072;-88
2023/03/27 16:36:58;;;;;;;5.00;2.53;;;;;;;;;;9785928;30;20041;-88
2023/03/27 16:41:59;;;;;;;5.13;3.47;;;;;;;;;;9777640;30;20029;-91
2023/03/27 16:47:00;;;;;;;4.77;2.63;;;;;;;;;;9785804;30;20127;-90
2023/03/27 16:52:01;;;;;;;7.07;3.23;;;;;;;;;;9787529;30;20193;-89
2023/03/27 16:57:03;;;;;;;5.77;3.07;;;;;;;;;;9793901;30;20107;-90
2023/03/27 17:02:04;;;;;;;6.03;3.33;;;;;;;;;;9791837;30;20056;-90
2023/03/27 17:07:05;;;;;;;6.80;3.23;;;;;;;;;;9781808;30;20466;-89
2023/03/27 17:12:08;;;;;;;6.27;3.03;;;;;;;;;;9783707;30;20152;-91
2023/03/27 17:17:09;;;;;;;6.07;3.13;;;;;;;;;;9783578;30;20036;-90
2023/03/27 17:22:14;;;;;;;8.07;3.50;;;;;;;;;;9781301;30;20072;-90
2023/03/27 17:27:16;;;;;;;8.07;3.53;;;;;;;;;;9795843;30;20108;-93
2023/03/27 17:32:17;;;;;;;4.77;2.80;;;;;;;;;;9786340;30;20441;-89
2023/03/27 17:37:18;;;;;;;5.63;3.00;;;;;;;;;;9793076;30;20050;-90
2023/03/27 17:42:20;;;;;;;5.60;2.93;;;;;;;;;;9785210;30;20044;-91
2023/03/27 17:47:21;;;;;;;4.67;2.63;;;;;;;;;;9779148;30;20051;-89
2023/03/27 17:52:22;;;;;;;6.07;3.00;;;;;;;;;;9783602;30;20040;-89
2023/03/27 17:57:23;;;;;;;5.37;2.67;;;;;;;;;;9774847;30;20305;-88
2023/03/27 18:02:29;;;;;;;5.27;2.87;;;;;;;;;;9775486;30;20066;-88
2023/03/27 18:07:32;;;;;;;4.30;2.67;;;;;;;;;;9776216;30;20074;-90
2023/03/27 18:12:33;;;;;;;5.20;2.90;;;;;;;;;;9770204;30;20057;-92
2023/03/27 18:17:34;;;;;;;4.03;2.63;;;;;;;;;;9791100;30;20064;-89
2023/03/27 18:22:38;;;;;;;5.83;2.97;;;;;;;;;;9783760;30;20087;-85
2023/03/27 18:27:43;;;;;;;9.73;3.43;;;;;;;;;;9785964;30;20043;-87
2023/03/27 18:32:45;;;;;;;7.27;3.50;;;;;;;;;;9793808;30;20127;-89
2023/03/27 18:37:46;;;;;;;11.37;3.60;;;;;;;;;;9794113;30;20033;-89
2023/03/27 18:42:47;;;;;;;10.60;4.20;;;;;;;;;;9792413;30;20040;-89
2023/03/27 18:47:48;;;;;;;7.90;3.73;;;;;;;;;;9800394;30;20634;-89
2023/03/27 18:52:49;;;;;;;10.27;4.37;;;;;;;;;;9790255;30;20128;-87
2023/03/27 18:57:50;;;;;;;9.30;4.57;;;;;;;;;;9791417;30;20029;-88
2023/03/27 19:02:51;;;;;;;11.33;4.67;;;;;;;;;;9797822;30;20747;-87
2023/03/27 19:07:58;;;;;;;14.90;5.87;;;;;;;;;;9794771;30;20048;-88
2023/03/27 19:13:00;;;;;;;12.97;5.53;;;;;;;;;;9793996;30;20657;-89
2023/03/27 19:18:02;;;;;;;10.20;4.93;;;;;;;;;;9789426;30;20040;-88
2023/03/27 19:23:05;;;;;;;13.63;5.17;;;;;;;;;;9790145;30;20413;-88
2023/03/27 19:28:06;;;;;;;11.97;5.30;;;;;;;;;;9789386;30;20049;-89
2023/03/27 19:33:07;;;;;;;17.30;6.47;;;;;;;;;;9786047;30;20460;-87
2023/03/27 19:38:08;;;;;;;30.77;10.60;;;;;;;;;;9788075;30;20043;-88
2023/03/27 19:43:12;;;;;;;25.90;10.30;;;;;;;;;;9804896;30;20492;-88
2023/03/27 19:48:13;;;;;;;24.20;9.20;;;;;;;;;;9797652;30;20091;-88
2023/03/27 19:53:14;;;;;;;24.37;8.40;;;;;;;;;;9787690;30;20042;-89
2023/03/27 19:58:16;;;;;;;22.90;8.80;;;;;;;;;;9791369;30;20094;-88
2023/03/27 20:03:18;;;;;;;15.80;7.30;;;;;;;;;;9796694;30;20693;-89
2023/03/27 20:08:20;;;;;;;14.73;6.70;;;;;;;;;;9789100;30;20041;-87
2023/03/27 20:13:21;;;;;;;13.13;5.97;;;;;;;;;;9787377;30;20478;-87
2023/03/27 20:18:22;;;;;;;13.37;6.40;;;;;;;;;;9788558;30;20090;-87
2023/03/27 20:23:30;;;;;;;16.20;6.57;;;;;;;;;;9788941;30;20060;-89
2023/03/27 20:28:31;;;;;;;12.73;6.30;;;;;;;;;;9792825;30;20082;-87
2023/03/27 20:33:32;;;;;;;17.93;7.40;;;;;;;;;;9789492;30;20552;-88
2023/03/27 20:38:35;;;;;;;15.20;8.13;;;;;;;;;;9787474;30;20359;-88
2023/03/27 20:43:37;;;;;;;15.90;6.93;;;;;;;;;;9790559;30;20071;-88
2023/03/27 20:48:44;;;;;;;20.43;8.13;;;;;;;;;;9793146;30;20033;-88
2023/03/27 20:53:52;;;;;;;15.70;6.80;;;;;;;;;;9785324;30;20093;-88
2023/03/27 20:58:53;;;;;;;15.67;6.47;;;;;;;;;;9787134;30;20032;-88
2023/03/27 21:03:56;;;;;;;15.27;6.67;;;;;;;;;;9806584;30;20515;-88
2023/03/27 21:08:58;;;;;;;19.23;8.07;;;;;;;;;;9786586;30;20098;-88
2023/03/27 21:13:59;;;;;;;20.10;7.33;;;;;;;;;;9796516;30;20040;-87
2023/03/27 21:19:00;;;;;;;22.67;7.97;;;;;;;;;;9784564;30;20122;-88
2023/03/27 21:24:01;;;;;;;21.33;8.17;;;;;;;;;;9786446;30;20040;-89
2023/03/27 21:29:03;;;;;;;19.17;7.40;;;;;;;;;;9786885;30;20359;-88
2023/03/27 21:34:04;;;;;;;17.43;7.13;;;;;;;;;;9788777;30;20435;-87
2023/03/27 21:39:05;;;;;;;13.43;6.67;;;;;;;;;;9796083;30;20033;-87
2023/03/27 21:44:06;;;;;;;17.73;7.27;;;;;;;;;;9791596;30;20044;-89
2023/03/27 21:49:07;;;;;;;10.93;5.43;;;;;;;;;;9785992;30;20029;-87
2023/03/27 21:54:08;;;;;;;17.70;7.53;;;;;;;;;;9785979;30;20569;-87
2023/03/27 21:59:09;;;;;;;15.03;5.87;;;;;;;;;;9789614;30;20127;-88
2023/03/27 22:04:10;;;;;;;15.20;6.83;;;;;;;;;;9796385;30;20479;-88
2023/03/27 22:09:11;;;;;;;14.60;5.30;;;;;;;;;;9794222;30;20064;-88
2023/03/27 22:14:12;;;;;;;13.83;5.60;;;;;;;;;;9802798;30;20055;-87
2023/03/27 22:19:14;;;;;;;11.60;7.13;;;;;;;;;;9803278;30;20040;-89
2023/03/27 22:24:15;;;;;;;16.07;5.37;;;;;;;;;;9797596;30;20362;-87
2023/03/27 22:29:16;;;;;;;14.40;6.87;;;;;;;;;;9800546;30;20033;-89
2023/03/27 22:34:17;;;;;;;15.67;6.60;;;;;;;;;;9793582;30;20045;-87
2023/03/27 22:39:18;;;;;;;12.77;5.83;;;;;;;;;;9792224;30;20433;-87
2023/03/27 22:44:19;;;;;;;12.87;5.77;;;;;;;;;;9793224;30;20032;-87
2023/03/27 22:49:20;;;;;;;11.77;5.23;;;;;;;;;;9802485;30;20029;-87
2023/03/27 22:54:21;;;;;;;11.03;5.30;;;;;;;;;;9790023;30;20033;-87
2023/03/27 22:59:22;;;;;;;10.70;5.37;;;;;;;;;;9795388;30;20045;-88
2023/03/27 23:04:23;;;;;;;11.57;5.83;;;;;;;;;;9792140;30;20040;-87
2023/03/27 23:09:24;;;;;;;21.70;8.27;;;;;;;;;;9790057;30;20127;-88
2023/03/27 23:14:25;;;;;;;23.97;9.53;;;;;;;;;;9790836;30;20494;-88
2023/03/27 23:19:26;;;;;;;19.93;8.43;;;;;;;;;;9789270;30;20091;-86
2023/03/27 23:24:27;;;;;;;20.70;8.30;;;;;;;;;;9802807;30;20181;-87
2023/03/27 23:29:28;;;;;;;24.10;9.80;;;;;;;;;;9789316;30;20086;-87
2023/03/27 23:34:29;;;;;;;22.20;9.70;;;;;;;;;;9792224;30;20052;-87
2023/03/27 23:39:30;;;;;;;26.97;10.77;;;;;;;;;;9790087;30;20041;-88
2023/03/27 23:44:31;;;;;;;42.20;16.27;;;;;;;;;;9792145;30;20564;-87
2023/03/27 23:49:32;;;;;;;69.20;24.07;;;;;;;;;;9788945;30;20040;-87
2023/03/27 23:54:33;;;;;;;65.80;25.03;;;;;;;;;;9788733;30;20044;-89
2023/03/27 23:59:34;;;;;;;43.87;19.47;;;;;;;;;;9790626;30;20036;-89
